createdAt,value
2019-04-11T00:01:14.215Z,80.18
2019-04-11T00:03:46.093Z,80.07
2019-04-11T00:06:19.347Z,79.90
2019-04-11T00:08:52.323Z,79.81
2019-04-11T00:11:24.321Z,79.76
2019-04-11T00:13:56.093Z,79.69
2019-04-11T00:16:28.956Z,79.65
2019-04-11T00:19:00.621Z,79.58
2019-04-11T00:21:32.994Z,79.53
2019-04-11T00:24:05.008Z,79.49
2019-04-11T00:26:38.194Z,79.52
2019-04-11T00:29:10.337Z,79.50
2019-04-11T00:31:43.086Z,79.52
2019-04-11T00:34:15.119Z,79.55
2019-04-11T00:36:46.832Z,79.48
2019-04-11T00:39:19.493Z,79.29
2019-04-11T00:41:52.296Z,79.26
2019-04-11T00:44:25.093Z,79.32
2019-04-11T00:46:56.959Z,79.40
2019-04-11T00:49:28.810Z,79.52
2019-04-11T00:52:00.882Z,79.63
2019-04-11T00:54:33.218Z,79.79
2019-04-11T00:57:06.473Z,80.02
2019-04-11T00:59:38.529Z,80.14
2019-04-11T01:02:11.409Z,80.23
2019-04-11T01:04:43.573Z,80.37
2019-04-11T01:07:16.474Z,80.59
2019-04-11T01:09:48.625Z,80.99
2019-04-11T01:12:21.006Z,81.23
2019-04-11T01:14:53.174Z,81.54
2019-04-11T01:17:25.396Z,81.78
2019-04-11T01:19:57.423Z,81.99
2019-04-11T01:22:29.872Z,82.16
2019-04-11T01:25:01.772Z,82.30
2019-04-11T01:27:34.180Z,82.43
2019-04-11T01:30:10.072Z,82.65
2019-04-11T01:32:42.373Z,82.80
2019-04-11T01:35:15.157Z,82.96
2019-04-11T01:37:48.094Z,83.09
2019-04-11T01:40:19.891Z,83.25
2019-04-11T01:42:52.055Z,83.37
2019-04-11T01:45:25.374Z,83.36
2019-04-11T01:47:59.459Z,83.40
2019-04-11T01:50:32.911Z,83.44
2019-04-11T01:53:05.043Z,83.51
2019-04-11T01:55:37.102Z,83.64
2019-04-11T01:58:09.168Z,83.74
2019-04-11T02:00:49.041Z,83.78
2019-04-11T02:03:25.586Z,83.90
2019-04-11T02:05:57.560Z,84.05
2019-04-11T02:08:29.518Z,84.36
2019-04-11T02:11:01.449Z,84.73
2019-04-11T02:13:34.246Z,85.02
2019-04-11T02:16:06.937Z,85.15
2019-04-11T02:18:39.390Z,85.25
2019-04-11T02:21:11.544Z,85.36
2019-04-11T02:23:57.501Z,85.46
2019-04-11T02:26:31.471Z,85.53
2019-04-11T02:29:03.523Z,85.61
2019-04-11T02:31:36.789Z,85.70
2019-04-11T02:34:11.219Z,85.73
2019-04-11T02:36:42.997Z,85.79
2019-04-11T02:39:19.266Z,85.81
2019-04-11T02:41:50.620Z,85.83
2019-04-11T02:44:46.043Z,85.85
2019-04-11T02:47:01.757Z,85.85
2019-04-11T02:49:30.977Z,85.83
2019-04-11T02:52:02.929Z,85.79
2019-04-11T02:54:36.666Z,85.77
2019-04-11T02:57:09.964Z,85.73
2019-04-11T02:59:44.439Z,85.69
2019-04-11T03:02:19.022Z,85.69
2019-04-11T03:04:50.926Z,85.74
2019-04-11T03:07:22.789Z,85.81
2019-04-11T03:09:56.750Z,85.82
2019-04-11T03:12:29.717Z,85.85
2019-04-11T03:15:14.388Z,85.89
2019-04-11T03:17:42.205Z,85.93
2019-04-11T03:20:19.711Z,85.86
2019-04-11T03:22:44.763Z,85.91
2019-04-11T03:25:17.755Z,85.95
2019-04-11T03:27:51.808Z,85.93
2019-04-11T03:30:40.653Z,85.92
2019-04-11T03:38:40.085Z,85.89
2019-04-11T03:41:08.774Z,85.88
2019-04-11T03:43:34.515Z,85.86
2019-04-11T03:46:18.009Z,85.86
2019-04-11T03:48:43.748Z,85.77
2019-04-11T03:51:04.798Z,85.70
2019-04-11T03:53:37.359Z,85.66
2019-04-11T03:56:09.758Z,85.63
2019-04-11T03:58:43.595Z,85.57
2019-04-11T04:01:18.183Z,85.52
2019-04-11T04:03:53.943Z,85.45
2019-04-11T04:06:28.575Z,85.37
2019-04-11T04:09:02.744Z,85.28
2019-04-11T04:11:36.274Z,85.16
2019-04-11T04:14:10.452Z,85.00
2019-04-11T04:16:48.266Z,84.85
2019-04-11T04:19:20.557Z,84.62
2019-04-11T04:22:00.824Z,84.34
2019-04-11T04:24:39.072Z,84.08
2019-04-11T04:27:10.102Z,83.82
2019-04-11T04:29:46.772Z,83.69
2019-04-11T04:32:18.527Z,83.68
2019-04-11T04:34:50.814Z,83.67
2019-04-11T04:41:30.193Z,83.59
2019-04-11T04:43:54.819Z,83.38
2019-04-11T04:46:45.330Z,83.44
2019-04-11T04:49:02.324Z,83.45
2019-04-11T04:51:35.163Z,83.56
2019-04-11T04:54:08.122Z,83.63
2019-04-11T04:56:41.953Z,83.65
2019-04-11T04:59:14.653Z,83.49
2019-04-11T05:01:48.320Z,83.52
2019-04-11T05:04:21.040Z,83.58
2019-04-11T05:06:54.959Z,83.62
2019-04-11T05:09:26.874Z,83.55
2019-04-11T05:11:58.957Z,83.64
2019-04-11T05:14:31.673Z,83.70
2019-04-11T05:17:03.498Z,83.58
2019-04-11T05:19:35.364Z,83.38
2019-04-11T05:22:08.491Z,83.09
2019-04-11T05:24:41.049Z,82.57
2019-04-11T05:27:12.920Z,81.79
2019-04-11T05:29:45.936Z,81.30
2019-04-11T05:32:17.833Z,80.38
2019-04-11T05:34:49.704Z,80.21
2019-04-11T05:37:22.735Z,80.02
2019-04-11T05:39:54.576Z,79.90
2019-04-11T05:42:27.400Z,79.95
2019-04-11T05:44:59.310Z,79.92
2019-04-11T05:47:31.709Z,79.94
2019-04-11T05:50:12.912Z,79.32
2019-04-11T05:52:42.172Z,79.13
2019-04-11T05:55:15.515Z,79.32
2019-04-11T05:57:48.222Z,79.47
2019-04-11T06:00:21.739Z,79.43
2019-04-11T06:02:55.280Z,79.46
2019-04-11T06:05:47.400Z,79.35
2019-04-11T06:08:25.056Z,78.79
2019-04-11T06:10:54.696Z,78.39
2019-04-11T06:13:30.542Z,77.76
2019-04-11T06:16:04.626Z,77.19
2019-04-11T06:18:41.884Z,76.91
2019-04-11T06:21:13.197Z,76.73
2019-04-11T06:23:47.704Z,75.58
2019-04-11T06:26:38.676Z,75.48
2019-04-11T06:29:21.293Z,76.40
2019-04-11T06:31:49.720Z,76.71
2019-04-11T06:34:24.060Z,76.58
2019-04-11T06:36:59.343Z,75.53
2019-04-11T06:39:35.962Z,74.68
2019-04-11T06:42:27.578Z,73.97
2019-04-11T06:45:02.132Z,73.08
2019-04-11T06:47:37.320Z,71.67
2019-04-11T06:50:20.476Z,70.83
2019-04-11T06:52:53.054Z,69.68
2019-04-11T06:55:42.660Z,68.64
2019-04-11T06:58:16.054Z,67.63
2019-04-11T07:00:50.088Z,66.96
2019-04-11T07:03:25.958Z,66.32
2019-04-11T07:05:57.282Z,66.17
2019-04-11T07:08:30.645Z,65.43
2019-04-11T07:11:20.529Z,65.00
2019-04-11T07:14:01.904Z,65.18
2019-04-11T07:16:36.171Z,65.33
2019-04-11T07:19:09.646Z,64.81
2019-04-11T07:21:42.025Z,64.36
2019-04-11T07:24:30.970Z,64.77
2019-04-11T07:27:04.651Z,65.52
2019-04-11T07:29:46.974Z,65.82
2019-04-11T07:32:20.193Z,65.85
2019-04-11T07:35:00.011Z,65.63
2019-04-11T07:37:36.748Z,64.96
2019-04-11T07:40:15.306Z,64.54
2019-04-11T07:42:59.433Z,64.34
2019-04-11T07:45:49.134Z,64.50
2019-04-11T07:48:22.726Z,64.05
2019-04-11T07:50:55.406Z,64.34
2019-04-11T07:53:28.542Z,63.91
2019-04-11T07:56:02.051Z,63.66
2019-04-11T10:19:38.450Z,54.54
2019-04-11T10:22:13.011Z,54.74
2019-04-11T10:24:46.474Z,54.54
2019-04-11T10:27:36.364Z,55.79
2019-04-11T10:30:27.479Z,53.82
2019-04-11T10:33:07.223Z,55.12
2019-04-11T10:35:40.819Z,55.08
2019-04-11T10:38:16.224Z,54.80
2019-04-11T10:40:52.462Z,54.61
2019-04-11T10:43:24.646Z,53.85
2019-04-11T10:45:58.807Z,54.43
2019-04-11T10:48:37.769Z,54.78
2019-04-11T10:51:07.037Z,54.99
2019-04-11T10:53:39.645Z,53.62
2019-04-11T10:56:16.018Z,53.23
2019-04-11T10:58:49.708Z,54.47
2019-04-11T11:01:40.186Z,53.99
2019-04-11T11:04:13.803Z,53.34
2019-04-11T11:06:48.383Z,53.26
2019-04-11T11:09:39.940Z,54.23
2019-04-11T11:12:31.085Z,52.36
2019-04-11T11:15:04.661Z,52.62
2019-04-11T11:18:05.569Z,52.26
2019-04-11T11:20:38.591Z,51.47
2019-04-11T11:23:24.766Z,51.84
2019-04-11T11:26:07.400Z,52.55
2019-04-11T11:28:46.695Z,51.67
2019-04-11T11:31:24.345Z,50.80
2019-04-11T11:33:58.850Z,50.20
2019-04-11T11:36:48.475Z,50.45
2019-04-11T11:39:22.700Z,50.96
2019-04-11T11:42:12.564Z,51.09
2019-04-11T11:44:53.141Z,49.94
2019-04-11T11:47:43.201Z,49.58
2019-04-11T11:50:26.773Z,49.32
2019-04-11T11:53:12.687Z,48.93
2019-04-11T11:55:45.305Z,49.65
2019-04-11T11:58:37.862Z,49.68
2019-04-11T12:01:09.946Z,49.04
2019-04-11T12:03:49.186Z,49.56
2019-04-11T12:06:23.858Z,50.73
2019-04-11T12:09:00.488Z,49.63
2019-04-11T12:11:35.727Z,49.33
2019-04-11T12:14:09.708Z,49.32
2019-04-11T12:16:42.460Z,49.83
2019-04-11T12:19:22.303Z,49.35
2019-04-11T12:21:56.000Z,48.74
2019-04-11T12:24:29.247Z,49.78
2019-04-11T12:27:04.404Z,49.89
2019-04-11T12:29:51.643Z,50.06
2019-04-11T12:32:28.439Z,49.28
2019-04-11T12:35:06.096Z,49.83
2019-04-11T12:37:39.487Z,48.29
2019-04-11T12:40:20.685Z,47.79
2019-04-11T12:42:52.856Z,47.75
2019-04-11T12:45:35.358Z,49.13
2019-04-11T12:48:07.417Z,48.42
2019-04-11T12:50:59.368Z,47.99
2019-04-11T12:53:31.421Z,47.85
2019-04-11T12:56:05.034Z,47.28
2019-04-11T12:59:24.307Z,47.01
2019-04-11T13:02:00.476Z,47.62
2019-04-11T13:04:32.438Z,47.38
2019-04-11T13:07:09.110Z,48.12
2019-04-11T13:09:43.854Z,46.96
2019-04-11T13:12:39.149Z,47.22
2019-04-11T13:15:24.121Z,47.19
2019-04-11T13:18:09.836Z,46.76
2019-04-11T13:20:49.549Z,46.51
2019-04-11T13:23:40.670Z,46.78
2019-04-11T13:26:30.529Z,47.38
2019-04-11T13:29:04.265Z,47.84
2019-04-11T13:31:55.975Z,47.61
2019-04-11T13:34:29.564Z,47.46
2019-04-11T13:37:19.467Z,46.30
2019-04-11T13:40:09.555Z,46.34
2019-04-11T13:43:02.520Z,46.65
2019-04-11T13:45:45.945Z,47.05
2019-04-11T13:48:35.710Z,46.79
2019-04-11T13:51:21.107Z,46.64
2019-04-11T13:54:11.093Z,46.85
2019-04-11T13:57:02.188Z,46.84
2019-04-11T13:59:35.790Z,46.88
2019-04-11T14:02:11.970Z,46.86
2019-04-11T14:04:57.864Z,45.78
2019-04-11T14:07:34.219Z,45.57
2019-04-11T14:10:08.445Z,45.27
2019-04-11T14:12:40.825Z,44.89
2019-04-11T14:15:17.388Z,44.20
2019-04-11T14:18:07.057Z,44.53
2019-04-11T14:20:59.104Z,45.29
2019-04-11T14:23:50.612Z,46.04
2019-04-11T14:26:24.316Z,46.39
2019-04-11T14:28:56.810Z,46.35
2019-04-11T14:31:39.124Z,46.18
2019-04-11T14:34:29.356Z,46.21
2019-04-11T14:37:21.144Z,45.99
2019-04-11T14:39:54.850Z,46.55
2019-04-11T14:42:46.233Z,46.66
2019-04-11T14:45:36.614Z,47.84
2019-04-11T14:48:27.066Z,48.17
2019-04-11T14:51:03.731Z,48.04
2019-04-11T14:53:53.635Z,47.74
2019-04-11T14:56:30.298Z,47.59
2019-04-11T14:59:23.977Z,48.50
2019-04-11T15:02:12.190Z,48.87
2019-04-11T15:04:48.984Z,48.86
2019-04-11T15:07:21.377Z,49.14
2019-04-11T15:10:10.953Z,48.49
2019-04-11T15:12:43.117Z,48.94
2019-04-11T15:15:25.026Z,48.15
2019-04-11T15:17:58.828Z,47.92
2019-04-11T15:20:54.183Z,48.00
2019-04-11T15:23:18.625Z,48.41
2019-04-11T15:26:08.811Z,48.16
2019-04-11T15:28:48.453Z,49.07
2019-04-11T15:31:39.159Z,49.22
2019-04-11T15:34:12.450Z,49.73
2019-04-11T15:36:52.341Z,50.32
2019-04-11T15:39:44.334Z,49.56
2019-04-11T15:42:15.977Z,49.77
2019-04-11T15:45:04.770Z,50.18
2019-04-11T15:47:38.378Z,50.59
2019-04-11T15:50:30.703Z,50.91
2019-04-11T15:53:06.607Z,50.76
2019-04-11T15:55:55.946Z,49.69
2019-04-11T15:58:29.534Z,49.80
2019-04-11T16:01:05.999Z,50.56
2019-04-11T16:03:37.967Z,51.21
2019-04-11T16:06:27.135Z,51.89
2019-04-11T16:08:59.731Z,52.69
2019-04-11T16:11:33.220Z,53.43
2019-04-11T16:14:06.834Z,53.99
2019-04-11T16:16:46.587Z,54.45
2019-04-11T16:19:26.442Z,54.97
2019-04-11T16:22:02.717Z,55.48
2019-04-11T16:24:35.572Z,56.00
2019-04-11T16:27:17.796Z,56.60
2019-04-11T16:29:54.260Z,57.18
2019-04-11T16:32:27.749Z,57.93
2019-04-11T16:35:08.429Z,58.60
2019-04-11T16:37:41.843Z,59.19
2019-04-11T16:40:18.199Z,59.68
2019-04-11T16:42:53.576Z,59.98
2019-04-11T16:45:42.688Z,60.31
2019-04-11T16:48:14.680Z,60.65
2019-04-11T16:50:46.638Z,61.03
2019-04-11T16:53:21.857Z,61.54
2019-04-11T16:55:55.521Z,62.08
2019-04-11T16:58:27.545Z,62.72
2019-04-11T17:00:59.443Z,63.49
2019-04-11T17:03:31.472Z,64.10
2019-04-11T17:06:07.782Z,64.48
2019-04-11T17:08:51.693Z,64.63
2019-04-11T17:11:26.724Z,64.61
2019-04-11T17:13:57.905Z,64.32
2019-04-11T17:16:30.838Z,64.69
2019-04-11T17:19:05.473Z,65.21
2019-04-11T17:21:43.000Z,65.72
2019-04-11T17:24:10.751Z,66.19
2019-04-11T17:26:42.923Z,66.66
2019-04-11T17:29:14.992Z,67.14
2019-04-11T17:31:47.166Z,67.64
2019-04-11T17:34:20.551Z,68.04
2019-04-11T17:36:52.504Z,68.49
2019-04-11T17:39:24.675Z,68.81
2019-04-11T17:41:56.657Z,68.97
2019-04-11T17:44:28.708Z,69.21
2019-04-11T17:47:00.976Z,69.37
2019-04-11T17:49:33.066Z,69.48
2019-04-11T17:52:07.027Z,69.53
2019-04-11T17:54:43.345Z,69.51
2019-04-11T17:57:15.213Z,69.55
2019-04-11T17:59:50.642Z,69.74
2019-04-11T18:02:22.821Z,69.94
2019-04-11T18:04:54.983Z,70.14
2019-04-11T18:07:26.856Z,70.43
2019-04-11T18:09:58.710Z,70.79
2019-04-11T18:12:30.676Z,71.08
2019-04-11T18:15:03.012Z,71.12
2019-04-11T18:17:36.223Z,70.91
2019-04-11T18:20:10.154Z,70.79
2019-04-11T18:22:45.793Z,71.05
2019-04-11T18:25:15.725Z,71.34
2019-04-11T18:27:47.467Z,71.72
2019-04-11T18:30:23.261Z,72.04
2019-04-11T18:32:54.473Z,72.33
2019-04-11T18:35:26.506Z,72.25
2019-04-11T18:38:01.755Z,71.97
2019-04-11T18:40:33.235Z,71.85
2019-04-11T18:43:05.298Z,71.92
2019-04-11T18:45:37.363Z,72.24
2019-04-11T18:48:09.228Z,72.55
2019-04-11T18:50:42.067Z,72.93
2019-04-11T18:53:21.951Z,73.19
2019-04-11T18:55:53.640Z,73.52
2019-04-11T18:58:25.597Z,73.69
2019-04-11T19:00:57.866Z,73.67
2019-04-11T19:03:35.986Z,73.95
2019-04-11T19:06:03.404Z,74.14
2019-04-11T19:08:36.319Z,74.14
2019-04-11T19:11:08.382Z,74.20
2019-04-11T19:13:40.218Z,74.37
2019-04-11T19:16:13.806Z,74.65
2019-04-11T19:18:47.660Z,74.69
2019-04-11T19:21:21.091Z,74.89
2019-04-11T19:23:53.350Z,75.12
2019-04-11T19:26:25.368Z,75.39
2019-04-11T19:28:57.121Z,75.51
2019-04-11T19:31:29.312Z,75.63
2019-04-11T19:34:04.396Z,75.78
2019-04-11T19:36:35.129Z,76.11
2019-04-11T19:39:13.549Z,76.34
2019-04-11T19:41:42.903Z,76.42
2019-04-11T19:44:16.859Z,76.38
2019-04-11T19:46:50.981Z,76.35
2019-04-11T19:49:24.210Z,76.39
2019-04-11T19:51:58.653Z,76.35
2019-04-11T19:54:32.805Z,76.38
2019-04-11T19:57:07.711Z,76.44
2019-04-11T19:59:39.454Z,76.65
2019-04-11T20:02:11.723Z,76.82
2019-04-11T20:04:43.484Z,77.04
2019-04-11T20:07:15.399Z,76.95
2019-04-11T20:09:47.305Z,76.65
2019-04-11T20:12:20.301Z,76.25
2019-04-11T20:14:52.460Z,76.05
2019-04-11T20:17:24.427Z,76.16
2019-04-11T20:20:01.579Z,76.30
2019-04-11T20:22:30.192Z,76.48
2019-04-11T20:25:02.834Z,76.67
2019-04-11T20:27:35.158Z,76.88
2019-04-11T20:30:07.847Z,77.12
2019-04-11T20:32:40.041Z,77.34
2019-04-11T20:35:11.925Z,77.53
2019-04-11T20:37:44.720Z,77.71
2019-04-11T20:40:18.150Z,77.98
2019-04-11T20:42:54.051Z,78.37
2019-04-11T20:45:28.483Z,78.37
2019-04-11T20:48:00.905Z,78.43
2019-04-11T20:50:32.737Z,78.53
2019-04-11T20:53:12.626Z,78.72
2019-04-11T20:55:39.266Z,78.89
2019-04-11T20:58:11.714Z,79.06
2019-04-11T21:00:50.091Z,79.14
2019-04-11T21:03:17.098Z,79.24
2019-04-11T21:05:48.726Z,79.36
2019-04-11T21:08:20.392Z,79.46
2019-04-11T21:10:52.234Z,79.58
2019-04-11T21:13:24.120Z,79.67
2019-04-11T21:15:56.655Z,79.77
2019-04-11T21:18:28.536Z,79.88
2019-04-11T21:21:00.851Z,79.95
2019-04-11T21:23:36.714Z,80.06
2019-04-11T21:26:09.048Z,80.24
2019-04-11T21:28:40.991Z,80.28
2019-04-11T21:31:13.183Z,80.27
2019-04-11T21:33:45.147Z,80.34
2019-04-11T21:36:18.331Z,80.37
2019-04-11T21:38:50.509Z,80.56
2019-04-11T21:41:23.799Z,80.63
2019-04-11T21:43:55.443Z,80.54
2019-04-11T21:46:27.955Z,80.51
2019-04-11T21:48:59.819Z,80.70
2019-04-11T21:51:31.849Z,80.89
2019-04-11T21:54:03.811Z,81.03
2019-04-11T21:56:35.792Z,81.02
2019-04-11T21:59:07.969Z,80.95
2019-04-11T22:01:43.002Z,80.82
2019-04-11T22:04:14.861Z,80.70
2019-04-11T22:06:47.206Z,80.72
2019-04-11T22:09:19.188Z,80.81
2019-04-11T22:11:50.931Z,80.88
2019-04-11T22:14:23.442Z,80.97
2019-04-11T22:16:56.738Z,81.04
2019-04-11T22:19:29.239Z,81.20
2019-04-11T22:22:02.266Z,81.46
2019-04-11T22:24:34.382Z,81.55
2019-04-11T22:27:06.430Z,81.71
2019-04-11T22:29:39.111Z,81.79
2019-04-11T22:32:11.268Z,81.82
2019-04-11T22:34:44.582Z,81.96
2019-04-11T22:37:16.934Z,81.99
2019-04-11T22:39:48.992Z,82.00
2019-04-11T22:42:21.071Z,81.99
2019-04-11T22:44:52.815Z,81.94
2019-04-11T22:47:24.802Z,81.91
2019-04-11T22:49:56.864Z,81.93
2019-04-11T22:52:29.262Z,81.92
2019-04-11T22:55:01.211Z,81.98
2019-04-11T22:57:33.371Z,82.03
2019-04-11T23:00:08.589Z,81.97
2019-04-11T23:02:47.420Z,82.00
2019-04-11T23:05:19.797Z,82.05
2019-04-11T23:07:51.790Z,82.16
2019-04-11T23:10:23.827Z,82.21
2019-04-11T23:12:55.992Z,82.24
2019-04-11T23:15:27.766Z,82.14
2019-04-11T23:17:59.732Z,82.08
2019-04-11T23:20:31.694Z,81.84
2019-04-11T23:23:03.564Z,81.68
2019-04-11T23:25:35.418Z,81.53
2019-04-11T23:28:07.509Z,81.37
2019-04-11T23:30:39.749Z,81.19
2019-04-11T23:33:11.522Z,81.21
2019-04-11T23:35:43.463Z,81.31
2019-04-11T23:38:15.278Z,81.41
2019-04-11T23:40:48.897Z,81.49
2019-04-11T23:43:20.780Z,81.55
2019-04-11T23:45:53.180Z,81.61
2019-04-11T23:48:24.814Z,81.76
2019-04-11T23:50:58.337Z,82.02
2019-04-11T23:53:29.906Z,82.02
2019-04-11T23:56:01.733Z,82.16
2019-04-11T23:58:33.802Z,82.21
